sensor_id;sensor_type;location;lat;lon;timestamp;pressure;altitude;pressure_sealevel;temperature;humidity
51829;BME280;37881;48.024;8.774;2023-06-22T00:01:19;94000.56;;;18.67;100.00
51829;BME280;37881;48.024;8.774;2023-06-22T00:03:46;93996.91;;;18.51;100.00
51829;BME280;37881;48.024;8.774;2023-06-22T00:06:13;93993.16;;;18.64;100.00
51829;BME280;37881;48.024;8.774;2023-06-22T00:08:40;93984.97;;;18.69;100.00
51829;BME280;37881;48.024;8.774;2023-06-22T00:11:07;93990.53;;;18.69;100.00
51829;BME280;37881;48.024;8.774;2023-06-22T00:13:34;93986.81;;;18.63;100.00
51829;BME280;37881;48.024;8.774;2023-06-22T00:16:00;93991.03;;;18.49;100.00
51829;BME280;37881;48.024;8.774;2023-06-22T00:18:27;93983.75;;;18.52;100.00
51829;BME280;37881;48.024;8.774;2023-06-22T00:20:55;93984.97;;;18.60;100.00
51829;BME280;37881;48.024;8.774;2023-06-22T00:23:25;93972.91;;;18.63;100.00
51829;BME280;37881;48.024;8.774;2023-06-22T00:25:52;93976.16;;;18.71;100.00
51829;BME280;37881;48.024;8.774;2023-06-22T00:28:19;93968.13;;;18.73;100.00
51829;BME280;37881;48.024;8.774;2023-06-22T00:30:46;93977.53;;;18.75;100.00
51829;BME280;37881;48.024;8.774;2023-06-22T00:33:13;93982.50;;;18.53;100.00
51829;BME280;37881;48.024;8.774;2023-06-22T00:35:39;93993.69;;;18.25;100.00
51829;BME280;37881;48.024;8.774;2023-06-22T00:38:08;93979.94;;;18.22;100.00
51829;BME280;37881;48.024;8.774;2023-06-22T00:40:35;93983.00;;;18.33;100.00
51829;BME280;37881;48.024;8.774;2023-06-22T00:43:03;93970.50;;;18.38;100.00
51829;BME280;37881;48.024;8.774;2023-06-22T00:45:31;93972.97;;;18.35;100.00
51829;BME280;37881;48.024;8.774;2023-06-22T00:47:58;93968.34;;;18.42;100.00
51829;BME280;37881;48.024;8.774;2023-06-22T00:50:27;93970.81;;;18.40;100.00
51829;BME280;37881;48.024;8.774;2023-06-22T00:52:57;93962.94;;;18.29;100.00
51829;BME280;37881;48.024;8.774;2023-06-22T00:55:25;93961.88;;;18.08;100.00
51829;BME280;37881;48.024;8.774;2023-06-22T00:57:53;93962.03;;;18.13;100.00
51829;BME280;37881;48.024;8.774;2023-06-22T01:00:24;93955.09;;;18.18;100.00
51829;BME280;37881;48.024;8.774;2023-06-22T01:02:52;93958.78;;;18.24;100.00
51829;BME280;37881;48.024;8.774;2023-06-22T01:05:20;93970.19;;;18.26;100.00
51829;BME280;37881;48.024;8.774;2023-06-22T01:12:04;93966.63;;;17.80;100.00
51829;BME280;37881;48.024;8.774;2023-06-22T01:16:59;93973.00;;;17.89;100.00
51829;BME280;37881;48.024;8.774;2023-06-22T01:22:06;93984.88;;;17.99;100.00
51829;BME280;37881;48.024;8.774;2023-06-22T01:27:44;93986.00;;;17.43;100.00
51829;BME280;37881;48.024;8.774;2023-06-22T01:30:16;93994.63;;;17.54;100.00
51829;BME280;37881;48.024;8.774;2023-06-22T01:32:43;94001.03;;;17.73;100.00
51829;BME280;37881;48.024;8.774;2023-06-22T01:35:11;94001.00;;;17.82;100.00
51829;BME280;37881;48.024;8.774;2023-06-22T01:37:39;93995.03;;;17.84;100.00
51829;BME280;37881;48.024;8.774;2023-06-22T01:40:07;93989.78;;;17.86;100.00
51829;BME280;37881;48.024;8.774;2023-06-22T01:42:36;93992.88;;;17.88;100.00
51829;BME280;37881;48.024;8.774;2023-06-22T01:45:04;93995.97;;;17.90;100.00
51829;BME280;37881;48.024;8.774;2023-06-22T01:47:31;93990.41;;;17.90;100.00
51829;BME280;37881;48.024;8.774;2023-06-22T01:49:59;94000.91;;;17.86;100.00
51829;BME280;37881;48.024;8.774;2023-06-22T01:52:25;93990.22;;;17.75;100.00
51829;BME280;37881;48.024;8.774;2023-06-22T01:54:52;94004.56;;;17.73;100.00
51829;BME280;37881;48.024;8.774;2023-06-22T01:57:20;93998.25;;;17.82;100.00
51829;BME280;37881;48.024;8.774;2023-06-22T01:59:57;93987.91;;;17.83;100.00
51829;BME280;37881;48.024;8.774;2023-06-22T02:02:28;93990.06;;;17.78;100.00
51829;BME280;37881;48.024;8.774;2023-06-22T02:05:09;93993.31;;;17.77;100.00
51829;BME280;37881;48.024;8.774;2023-06-22T02:07:45;93994.84;;;17.78;100.00
51829;BME280;37881;48.024;8.774;2023-06-22T02:10:15;93988.53;;;17.77;100.00
51829;BME280;37881;48.024;8.774;2023-06-22T02:12:46;93990.06;;;17.78;100.00
51829;BME280;37881;48.024;8.774;2023-06-22T02:15:15;93988.66;;;17.74;100.00
51829;BME280;37881;48.024;8.774;2023-06-22T02:17:42;93982.34;;;17.73;100.00
51829;BME280;37881;48.024;8.774;2023-06-22T02:20:15;93982.81;;;17.72;100.00
51829;BME280;37881;48.024;8.774;2023-06-22T02:22:42;93983.88;;;17.65;100.00
51829;BME280;37881;48.024;8.774;2023-06-22T02:25:09;93984.63;;;17.56;100.00
51829;BME280;37881;48.024;8.774;2023-06-22T02:27:36;93981.84;;;17.56;100.00
51829;BME280;37881;48.024;8.774;2023-06-22T02:30:03;93991.72;;;17.57;100.00
51829;BME280;37881;48.024;8.774;2023-06-22T02:32:30;93984.47;;;17.51;100.00
51829;BME280;37881;48.024;8.774;2023-06-22T02:34:56;93996.31;;;17.42;100.00
51829;BME280;37881;48.024;8.774;2023-06-22T02:37:23;93989.81;;;17.36;100.00
51829;BME280;37881;48.024;8.774;2023-06-22T02:39:52;93989.19;;;17.32;100.00
51829;BME280;37881;48.024;8.774;2023-06-22T02:42:18;93985.03;;;17.27;100.00
51829;BME280;37881;48.024;8.774;2023-06-22T02:44:47;93980.69;;;17.26;100.00
51829;BME280;37881;48.024;8.774;2023-06-22T02:47:14;93973.94;;;17.27;100.00
51829;BME280;37881;48.024;8.774;2023-06-22T02:49:40;93979.47;;;17.27;100.00
51829;BME280;37881;48.024;8.774;2023-06-22T02:52:08;93977.16;;;17.26;100.00
51829;BME280;37881;48.024;8.774;2023-06-22T02:54:35;93982.38;;;17.24;100.00
51829;BME280;37881;48.024;8.774;2023-06-22T02:57:01;93978.53;;;17.21;100.00
51829;BME280;37881;48.024;8.774;2023-06-22T02:59:29;93982.06;;;17.12;100.00
51829;BME280;37881;48.024;8.774;2023-06-22T03:01:59;93980.03;;;17.13;100.00
51829;BME280;37881;48.024;8.774;2023-06-22T03:04:26;93980.31;;;17.06;100.00
51829;BME280;37881;48.024;8.774;2023-06-22T03:06:53;93965.69;;;17.05;100.00
51829;BME280;37881;48.024;8.774;2023-06-22T03:09:19;93973.88;;;17.09;100.00
51829;BME280;37881;48.024;8.774;2023-06-22T03:11:46;93970.47;;;17.05;100.00
51829;BME280;37881;48.024;8.774;2023-06-22T03:14:13;93973.25;;;17.05;100.00
51829;BME280;37881;48.024;8.774;2023-06-22T03:16:40;93967.06;;;17.01;100.00
51829;BME280;37881;48.024;8.774;2023-06-22T03:19:07;93960.53;;;16.85;100.00
51829;BME280;37881;48.024;8.774;2023-06-22T03:21:34;93972.53;;;16.60;100.00
51829;BME280;37881;48.024;8.774;2023-06-22T03:24:01;93976.13;;;16.48;100.00
51829;BME280;37881;48.024;8.774;2023-06-22T03:26:28;93982.63;;;16.54;100.00
51829;BME280;37881;48.024;8.774;2023-06-22T03:28:54;93980.06;;;16.60;100.00
51829;BME280;37881;48.024;8.774;2023-06-22T03:31:22;93982.25;;;16.65;100.00
51829;BME280;37881;48.024;8.774;2023-06-22T03:33:50;93972.44;;;16.73;100.00
51829;BME280;37881;48.024;8.774;2023-06-22T03:36:17;93967.22;;;16.75;100.00
51829;BME280;37881;48.024;8.774;2023-06-22T03:38:48;93967.09;;;16.78;100.00
51829;BME280;37881;48.024;8.774;2023-06-22T03:41:15;93964.53;;;16.84;100.00
51829;BME280;37881;48.024;8.774;2023-06-22T03:43:42;93968.19;;;16.81;100.00
51829;BME280;37881;48.024;8.774;2023-06-22T03:46:09;93974.28;;;16.76;100.00
51829;BME280;37881;48.024;8.774;2023-06-22T03:48:35;93976.63;;;16.77;100.00
51829;BME280;37881;48.024;8.774;2023-06-22T03:51:02;93979.38;;;16.77;100.00
51829;BME280;37881;48.024;8.774;2023-06-22T03:53:32;93977.03;;;16.89;100.00
51829;BME280;37881;48.024;8.774;2023-06-22T03:55:59;93975.09;;;17.08;100.00
51829;BME280;37881;48.024;8.774;2023-06-22T03:58:26;93967.00;;;17.23;100.00
51829;BME280;37881;48.024;8.774;2023-06-22T04:00:53;93975.31;;;17.32;100.00
51829;BME280;37881;48.024;8.774;2023-06-22T04:03:19;93972.59;;;17.41;100.00
51829;BME280;37881;48.024;8.774;2023-06-22T04:05:47;93969.38;;;17.61;100.00
51829;BME280;37881;48.024;8.774;2023-06-22T04:08:15;93959.69;;;17.75;100.00
51829;BME280;37881;48.024;8.774;2023-06-22T04:10:41;93967.13;;;17.87;100.00
51829;BME280;37881;48.024;8.774;2023-06-22T04:13:08;93948.00;;;17.89;100.00
51829;BME280;37881;48.024;8.774;2023-06-22T04:15:35;93958.41;;;17.48;100.00
51829;BME280;37881;48.024;8.774;2023-06-22T04:18:02;93952.94;;;17.94;100.00
51829;BME280;37881;48.024;8.774;2023-06-22T04:20:30;93941.44;;;17.46;100.00
51829;BME280;37881;48.024;8.774;2023-06-22T04:22:58;93949.03;;;17.73;100.00
51829;BME280;37881;48.024;8.774;2023-06-22T04:25:25;93939.53;;;18.11;100.00
51829;BME280;37881;48.024;8.774;2023-06-22T04:27:52;93923.22;;;18.65;100.00
51829;BME280;37881;48.024;8.774;2023-06-22T04:30:19;93923.84;;;19.03;100.00
51829;BME280;37881;48.024;8.774;2023-06-22T04:32:45;93935.25;;;18.71;100.00
51829;BME280;37881;48.024;8.774;2023-06-22T04:35:19;93907.06;;;19.93;100.00
51829;BME280;37881;48.024;8.774;2023-06-22T04:37:46;93911.19;;;20.52;100.00
51829;BME280;37881;48.024;8.774;2023-06-22T04:40:15;93912.16;;;20.49;100.00
51829;BME280;37881;48.024;8.774;2023-06-22T04:42:41;93911.72;;;20.11;100.00
51829;BME280;37881;48.024;8.774;2023-06-22T04:45:19;93921.78;;;20.78;100.00
51829;BME280;37881;48.024;8.774;2023-06-22T04:47:46;93925.63;;;20.95;100.00
51829;BME280;37881;48.024;8.774;2023-06-22T04:50:14;93923.94;;;19.75;100.00
51829;BME280;37881;48.024;8.774;2023-06-22T04:52:40;93932.63;;;19.44;100.00
51829;BME280;37881;48.024;8.774;2023-06-22T04:55:07;93931.09;;;19.67;100.00
51829;BME280;37881;48.024;8.774;2023-06-22T04:57:35;93931.94;;;19.82;100.00
51829;BME280;37881;48.024;8.774;2023-06-22T05:00:02;93928.25;;;20.00;100.00
51829;BME280;37881;48.024;8.774;2023-06-22T05:02:39;93931.25;;;19.87;100.00
51829;BME280;37881;48.024;8.774;2023-06-22T05:05:06;93938.28;;;19.25;100.00
51829;BME280;37881;48.024;8.774;2023-06-22T05:07:34;93932.56;;;19.53;100.00
51829;BME280;37881;48.024;8.774;2023-06-22T05:10:02;93921.81;;;20.09;100.00
51829;BME280;37881;48.024;8.774;2023-06-22T05:12:29;93913.97;;;20.52;100.00
51829;BME280;37881;48.024;8.774;2023-06-22T05:14:56;93924.91;;;20.26;100.00
51829;BME280;37881;48.024;8.774;2023-06-22T05:17:23;93930.03;;;20.72;100.00
51829;BME280;37881;48.024;8.774;2023-06-22T05:19:50;93918.22;;;22.77;100.00
51829;BME280;37881;48.024;8.774;2023-06-22T05:22:17;93895.47;;;24.36;100.00
51829;BME280;37881;48.024;8.774;2023-06-22T05:24:44;93910.41;;;24.10;100.00
51829;BME280;37881;48.024;8.774;2023-06-22T05:27:10;93911.34;;;24.56;100.00
51829;BME280;37881;48.024;8.774;2023-06-22T05:29:37;93904.91;;;25.68;100.00
51829;BME280;37881;48.024;8.774;2023-06-22T05:32:05;93894.97;;;25.61;100.00
51829;BME280;37881;48.024;8.774;2023-06-22T05:34:32;93892.69;;;27.07;95.37
51829;BME280;37881;48.024;8.774;2023-06-22T05:36:59;93896.56;;;26.68;97.22
51829;BME280;37881;48.024;8.774;2023-06-22T05:39:26;93899.91;;;27.87;87.55
51829;BME280;37881;48.024;8.774;2023-06-22T05:41:53;93879.56;;;28.90;83.73
51829;BME280;37881;48.024;8.774;2023-06-22T05:44:19;93877.34;;;30.14;75.15
51829;BME280;37881;48.024;8.774;2023-06-22T05:46:46;93882.16;;;30.66;68.91
51829;BME280;37881;48.024;8.774;2023-06-22T05:49:15;93887.78;;;30.80;66.54
51829;BME280;37881;48.024;8.774;2023-06-22T05:51:42;93888.75;;;31.59;61.00
51829;BME280;37881;48.024;8.774;2023-06-22T05:54:09;93877.03;;;31.91;59.24
51829;BME280;37881;48.024;8.774;2023-06-22T05:56:36;93881.75;;;31.60;61.84
51829;BME280;37881;48.024;8.774;2023-06-22T05:59:03;93884.97;;;29.92;64.47
51829;BME280;37881;48.024;8.774;2023-06-22T06:01:30;93885.91;;;28.77;74.21
51829;BME280;37881;48.024;8.774;2023-06-22T06:04:03;93890.88;;;28.90;72.87
51829;BME280;37881;48.024;8.774;2023-06-22T06:06:31;93871.50;;;30.73;65.04
51829;BME280;37881;48.024;8.774;2023-06-22T06:08:58;93862.69;;;29.75;65.01
51829;BME280;37881;48.024;8.774;2023-06-22T06:11:26;93882.53;;;26.09;92.51
51829;BME280;37881;48.024;8.774;2023-06-22T06:13:52;93890.59;;;30.59;69.74
51829;BME280;37881;48.024;8.774;2023-06-22T06:16:19;93886.63;;;32.09;59.80
51829;BME280;37881;48.024;8.774;2023-06-22T06:18:46;93867.13;;;32.50;56.02
51829;BME280;37881;48.024;8.774;2023-06-22T06:21:15;93872.03;;;32.41;54.71
51829;BME280;37881;48.024;8.774;2023-06-22T06:23:42;93882.59;;;30.71;59.97
51829;BME280;37881;48.024;8.774;2023-06-22T06:26:08;93892.31;;;32.09;56.63
51829;BME280;37881;48.024;8.774;2023-06-22T06:28:35;93881.31;;;33.01;53.43
51829;BME280;37881;48.024;8.774;2023-06-22T06:31:02;93869.22;;;34.01;48.41
51829;BME280;37881;48.024;8.774;2023-06-22T06:33:29;93872.41;;;34.20;47.38
51829;BME280;37881;48.024;8.774;2023-06-22T06:35:58;93879.59;;;35.43;44.02
51829;BME280;37881;48.024;8.774;2023-06-22T06:38:28;93880.72;;;35.15;44.30
51829;BME280;37881;48.024;8.774;2023-06-22T06:40:55;93875.91;;;35.58;42.85
51829;BME280;37881;48.024;8.774;2023-06-22T06:43:21;93869.44;;;33.11;47.26
51829;BME280;37881;48.024;8.774;2023-06-22T06:45:49;93876.94;;;31.05;54.72
51829;BME280;37881;48.024;8.774;2023-06-22T06:48:18;93889.59;;;32.69;53.00
51829;BME280;37881;48.024;8.774;2023-06-22T06:50:45;93881.28;;;34.40;46.90
51829;BME280;37881;48.024;8.774;2023-06-22T06:53:11;93882.53;;;34.62;45.21
51829;BME280;37881;48.024;8.774;2023-06-22T06:55:38;93889.44;;;34.92;44.07
51829;BME280;37881;48.024;8.774;2023-06-22T06:58:05;93895.69;;;32.80;47.98
51829;BME280;37881;48.024;8.774;2023-06-22T07:00:34;93886.97;;;32.94;49.78
51829;BME280;37881;48.024;8.774;2023-06-22T07:03:02;93883.44;;;34.72;46.01
51829;BME280;37881;48.024;8.774;2023-06-22T07:05:29;93874.19;;;35.80;42.04
51829;BME280;37881;48.024;8.774;2023-06-22T07:07:56;93874.69;;;35.69;41.59
51829;BME280;37881;48.024;8.774;2023-06-22T07:10:22;93876.44;;;35.06;43.40
51829;BME280;37881;48.024;8.774;2023-06-22T07:12:49;93854.41;;;34.02;45.59
51829;BME280;37881;48.024;8.774;2023-06-22T07:15:16;93857.09;;;33.54;46.81
51829;BME280;37881;48.024;8.774;2023-06-22T07:17:42;93850.09;;;35.48;42.98
51829;BME280;37881;48.024;8.774;2023-06-22T07:20:10;93865.06;;;37.50;40.18
51829;BME280;37881;48.024;8.774;2023-06-22T07:22:40;93852.91;;;38.16;37.09
51829;BME280;37881;48.024;8.774;2023-06-22T07:25:08;93841.59;;;38.57;35.57
51829;BME280;37881;48.024;8.774;2023-06-22T07:27:58;93844.53;;;37.81;37.64
51829;BME280;37881;48.024;8.774;2023-06-22T07:30:25;93840.09;;;38.66;35.75
51829;BME280;37881;48.024;8.774;2023-06-22T07:32:54;93838.75;;;38.57;35.08
51829;BME280;37881;48.024;8.774;2023-06-22T07:35:21;93849.09;;;39.52;34.11
51829;BME280;37881;48.024;8.774;2023-06-22T07:37:47;93852.78;;;39.43;33.59
51829;BME280;37881;48.024;8.774;2023-06-22T07:40:14;93855.91;;;39.78;33.40
51829;BME280;37881;48.024;8.774;2023-06-22T07:42:41;93863.88;;;39.17;33.22
51829;BME280;37881;48.024;8.774;2023-06-22T07:45:08;93871.06;;;39.79;32.78
51829;BME280;37881;48.024;8.774;2023-06-22T07:47:35;93871.84;;;39.69;33.13
51829;BME280;37881;48.024;8.774;2023-06-22T07:50:03;93865.44;;;38.79;33.72
51829;BME280;37881;48.024;8.774;2023-06-22T07:52:30;93865.50;;;34.39;41.44
51829;BME280;37881;48.024;8.774;2023-06-22T07:54:57;93875.63;;;33.01;45.16
51829;BME280;37881;48.024;8.774;2023-06-22T07:57:24;93892.50;;;32.11;49.70
51829;BME280;37881;48.024;8.774;2023-06-22T08:00:00;93927.66;;;32.00;51.86
51829;BME280;37881;48.024;8.774;2023-06-22T08:02:27;93960.81;;;33.30;49.61
51829;BME280;37881;48.024;8.774;2023-06-22T08:04:54;93970.78;;;34.21;46.37
51829;BME280;37881;48.024;8.774;2023-06-22T08:07:40;93952.34;;;35.92;41.65
51829;BME280;37881;48.024;8.774;2023-06-22T08:10:10;93955.81;;;35.25;42.78
51829;BME280;37881;48.024;8.774;2023-06-22T08:12:38;93944.91;;;33.27;47.44
51829;BME280;37881;48.024;8.774;2023-06-22T08:15:05;93935.75;;;30.91;54.08
51829;BME280;37881;48.024;8.774;2023-06-22T08:17:33;93956.47;;;34.52;47.93
51829;BME280;37881;48.024;8.774;2023-06-22T08:19:59;93947.91;;;34.68;44.93
51829;BME280;37881;48.024;8.774;2023-06-22T08:22:26;93949.28;;;36.15;44.01
51829;BME280;37881;48.024;8.774;2023-06-22T08:24:53;93933.31;;;36.99;39.55
51829;BME280;37881;48.024;8.774;2023-06-22T08:27:20;93934.09;;;32.37;49.56
51829;BME280;37881;48.024;8.774;2023-06-22T08:29:47;93933.72;;;32.70;52.09
51829;BME280;37881;48.024;8.774;2023-06-22T08:32:16;93946.84;;;33.55;49.06
51829;BME280;37881;48.024;8.774;2023-06-22T08:34:42;93938.47;;;31.39;59.38
51829;BME280;37881;48.024;8.774;2023-06-22T08:37:09;93939.03;;;33.25;52.65
51829;BME280;37881;48.024;8.774;2023-06-22T08:39:36;93930.81;;;32.25;54.22
51829;BME280;37881;48.024;8.774;2023-06-22T08:42:03;93925.53;;;32.30;55.25
51829;BME280;37881;48.024;8.774;2023-06-22T08:44:30;93929.50;;;34.46;47.66
51829;BME280;37881;48.024;8.774;2023-06-22T08:46:57;93923.09;;;34.37;48.64
51829;BME280;37881;48.024;8.774;2023-06-22T08:49:24;93923.00;;;36.17;44.49
51829;BME280;37881;48.024;8.774;2023-06-22T08:51:50;93919.38;;;36.51;42.64
51829;BME280;37881;48.024;8.774;2023-06-22T08:54:19;93906.72;;;37.07;39.83
51829;BME280;37881;48.024;8.774;2023-06-22T08:56:46;93903.44;;;35.63;43.07
51829;BME280;37881;48.024;8.774;2023-06-22T08:59:13;93892.00;;;34.72;46.56
51829;BME280;37881;48.024;8.774;2023-06-22T09:01:40;93880.16;;;35.74;42.48
51829;BME280;37881;48.024;8.774;2023-06-22T09:04:06;93867.69;;;37.29;40.65
51829;BME280;37881;48.024;8.774;2023-06-22T09:06:36;93865.91;;;39.46;36.05
51829;BME280;37881;48.024;8.774;2023-06-22T09:09:07;93864.44;;;39.98;33.93
51829;BME280;37881;48.024;8.774;2023-06-22T09:11:34;93854.41;;;40.51;32.98
51829;BME280;37881;48.024;8.774;2023-06-22T09:14:01;93868.34;;;37.37;37.23
51829;BME280;37881;48.024;8.774;2023-06-22T09:16:28;93849.34;;;37.05;37.99
51829;BME280;37881;48.024;8.774;2023-06-22T09:18:55;93851.53;;;35.57;41.36
51829;BME280;37881;48.024;8.774;2023-06-22T09:21:21;93849.28;;;35.98;39.76
51829;BME280;37881;48.024;8.774;2023-06-22T09:23:48;93853.22;;;35.10;42.14
51829;BME280;37881;48.024;8.774;2023-06-22T09:26:18;93841.72;;;35.93;40.61
51829;BME280;37881;48.024;8.774;2023-06-22T09:28:45;93845.34;;;33.73;43.62
51829;BME280;37881;48.024;8.774;2023-06-22T09:31:12;93832.94;;;34.17;44.67
51829;BME280;37881;48.024;8.774;2023-06-22T09:33:40;93834.28;;;37.31;39.39
51829;BME280;37881;48.024;8.774;2023-06-22T09:36:07;93835.94;;;39.08;36.01
51829;BME280;37881;48.024;8.774;2023-06-22T09:38:37;93834.59;;;39.50;33.23
51829;BME280;37881;48.024;8.774;2023-06-22T09:41:04;93834.88;;;40.50;32.24
51829;BME280;37881;48.024;8.774;2023-06-22T09:43:32;93827.63;;;41.27;30.68
51829;BME280;37881;48.024;8.774;2023-06-22T09:45:59;93825.50;;;39.85;31.57
51829;BME280;37881;48.024;8.774;2023-06-22T09:48:25;93817.94;;;39.89;31.32
51829;BME280;37881;48.024;8.774;2023-06-22T09:50:52;93804.72;;;39.43;32.62
51829;BME280;37881;48.024;8.774;2023-06-22T09:53:19;93806.00;;;38.21;34.38
51829;BME280;37881;48.024;8.774;2023-06-22T09:55:46;93808.53;;;38.07;32.70
51829;BME280;37881;48.024;8.774;2023-06-22T09:58:13;93816.47;;;36.51;34.68
51829;BME280;37881;48.024;8.774;2023-06-22T10:00:39;93819.28;;;35.47;37.71
51829;BME280;37881;48.024;8.774;2023-06-22T10:03:07;93820.16;;;34.33;41.45
51829;BME280;37881;48.024;8.774;2023-06-22T10:05:35;93817.28;;;33.70;43.40
51829;BME280;37881;48.024;8.774;2023-06-22T10:08:02;93812.22;;;34.24;43.12
51829;BME280;37881;48.024;8.774;2023-06-22T10:10:29;93813.75;;;34.17;43.44
51829;BME280;37881;48.024;8.774;2023-06-22T10:12:57;93810.25;;;33.40;45.54
51829;BME280;37881;48.024;8.774;2023-06-22T10:15:24;93809.88;;;33.28;47.56
51829;BME280;37881;48.024;8.774;2023-06-22T10:17:50;93813.88;;;33.63;47.46
51829;BME280;37881;48.024;8.774;2023-06-22T10:20:18;93817.28;;;33.23;48.83
51829;BME280;37881;48.024;8.774;2023-06-22T10:22:45;93827.09;;;32.24;50.99
51829;BME280;37881;48.024;8.774;2023-06-22T10:25:13;93829.97;;;32.32;50.54
51829;BME280;37881;48.024;8.774;2023-06-22T10:27:40;93839.16;;;32.10;51.62
51829;BME280;37881;48.024;8.774;2023-06-22T10:30:11;93837.81;;;32.11;53.30
51829;BME280;37881;48.024;8.774;2023-06-22T10:32:40;93839.59;;;31.14;60.65
51829;BME280;37881;48.024;8.774;2023-06-22T10:35:08;93839.78;;;31.37;65.12
51829;BME280;37881;48.024;8.774;2023-06-22T10:37:35;93842.00;;;31.31;66.11
51829;BME280;37881;48.024;8.774;2023-06-22T10:40:02;93825.78;;;31.60;66.59
51829;BME280;37881;48.024;8.774;2023-06-22T10:42:30;93821.25;;;31.65;67.39
51829;BME280;37881;48.024;8.774;2023-06-22T10:44:57;93824.91;;;31.44;66.55
51829;BME280;37881;48.024;8.774;2023-06-22T10:47:23;93818.41;;;31.57;69.27
51829;BME280;37881;48.024;8.774;2023-06-22T10:49:50;93825.72;;;31.53;69.34
51829;BME280;37881;48.024;8.774;2023-06-22T10:52:17;93821.44;;;31.38;70.10
51829;BME280;37881;48.024;8.774;2023-06-22T10:54:44;93821.94;;;30.32;77.71
51829;BME280;37881;48.024;8.774;2023-06-22T10:57:10;93827.25;;;30.22;81.50
51829;BME280;37881;48.024;8.774;2023-06-22T10:59:37;93835.22;;;30.10;79.51
51829;BME280;37881;48.024;8.774;2023-06-22T11:02:04;93828.97;;;30.38;77.98
51829;BME280;37881;48.024;8.774;2023-06-22T11:04:31;93828.25;;;30.24;80.26
51829;BME280;37881;48.024;8.774;2023-06-22T11:06:58;93830.44;;;30.87;77.52
51829;BME280;37881;48.024;8.774;2023-06-22T11:09:25;93832.66;;;31.73;70.41
51829;BME280;37881;48.024;8.774;2023-06-22T11:11:55;93828.97;;;30.38;76.63
51829;BME280;37881;48.024;8.774;2023-06-22T11:14:22;93825.50;;;30.66;77.23
51829;BME280;37881;48.024;8.774;2023-06-22T11:16:49;93827.28;;;30.56;74.87
51829;BME280;37881;48.024;8.774;2023-06-22T11:19:16;93831.75;;;30.86;74.21
51829;BME280;37881;48.024;8.774;2023-06-22T11:21:44;93821.59;;;30.70;74.38
51829;BME280;37881;48.024;8.774;2023-06-22T11:24:10;93824.81;;;30.53;73.00
51829;BME280;37881;48.024;8.774;2023-06-22T11:26:37;93825.25;;;30.57;74.83
51829;BME280;37881;48.024;8.774;2023-06-22T11:29:04;93819.84;;;31.01;72.28
51829;BME280;37881;48.024;8.774;2023-06-22T11:31:32;93830.25;;;31.27;69.35
51829;BME280;37881;48.024;8.774;2023-06-22T11:33:59;93835.66;;;30.96;72.57
51829;BME280;37881;48.024;8.774;2023-06-22T11:36:27;93833.69;;;31.54;69.47
51829;BME280;37881;48.024;8.774;2023-06-22T11:38:53;93846.59;;;31.63;70.53
51829;BME280;37881;48.024;8.774;2023-06-22T11:41:20;93846.31;;;31.45;69.15
51829;BME280;37881;48.024;8.774;2023-06-22T11:43:47;93846.81;;;31.94;68.21
51829;BME280;37881;48.024;8.774;2023-06-22T11:46:14;93858.63;;;32.13;69.00
51829;BME280;37881;48.024;8.774;2023-06-22T11:48:41;93865.28;;;31.87;68.35
51829;BME280;37881;48.024;8.774;2023-06-22T11:51:07;93866.63;;;30.60;73.29
51829;BME280;37881;48.024;8.774;2023-06-22T11:53:35;93874.53;;;30.14;76.44
51829;BME280;37881;48.024;8.774;2023-06-22T11:56:01;93884.19;;;30.18;79.40
51829;BME280;37881;48.024;8.774;2023-06-22T11:58:28;93885.94;;;30.21;80.02
51829;BME280;37881;48.024;8.774;2023-06-22T12:00:55;93887.56;;;29.50;85.11
51829;BME280;37881;48.024;8.774;2023-06-22T12:03:22;93894.63;;;29.57;87.08
51829;BME280;37881;48.024;8.774;2023-06-22T12:05:50;93891.72;;;29.62;86.30
51829;BME280;37881;48.024;8.774;2023-06-22T12:08:18;93878.41;;;29.31;89.48
51829;BME280;37881;48.024;8.774;2023-06-22T12:10:45;93880.19;;;29.60;88.40
51829;BME280;37881;48.024;8.774;2023-06-22T12:13:12;93877.44;;;29.55;87.30
51829;BME280;37881;48.024;8.774;2023-06-22T12:15:39;93872.66;;;29.36;88.57
51829;BME280;37881;48.024;8.774;2023-06-22T12:18:06;93859.69;;;29.27;91.17
51829;BME280;37881;48.024;8.774;2023-06-22T12:20:33;93863.09;;;29.53;87.97
51829;BME280;37881;48.024;8.774;2023-06-22T12:23:00;93847.63;;;29.54;88.56
51829;BME280;37881;48.024;8.774;2023-06-22T12:25:26;93849.09;;;29.87;86.62
51829;BME280;37881;48.024;8.774;2023-06-22T12:27:53;93845.06;;;29.82;86.97
51829;BME280;37881;48.024;8.774;2023-06-22T12:30:20;93843.44;;;30.48;83.67
51829;BME280;37881;48.024;8.774;2023-06-22T12:32:47;93846.75;;;30.25;81.85
51829;BME280;37881;48.024;8.774;2023-06-22T12:35:14;93848.78;;;29.91;85.61
51829;BME280;37881;48.024;8.774;2023-06-22T12:37:41;93842.91;;;29.89;84.21
51829;BME280;37881;48.024;8.774;2023-06-22T12:40:09;93845.59;;;30.90;77.44
51829;BME280;37881;48.024;8.774;2023-06-22T12:42:36;93836.56;;;31.41;74.89
51829;BME280;37881;48.024;8.774;2023-06-22T12:45:03;93845.75;;;30.71;75.70
51829;BME280;37881;48.024;8.774;2023-06-22T12:47:30;93855.72;;;30.03;78.20
51829;BME280;37881;48.024;8.774;2023-06-22T12:49:57;93853.88;;;30.88;75.03
51829;BME280;37881;48.024;8.774;2023-06-22T12:52:24;93854.50;;;30.25;73.85
51829;BME280;37881;48.024;8.774;2023-06-22T12:54:51;93866.19;;;29.95;75.44
51829;BME280;37881;48.024;8.774;2023-06-22T12:57:21;93868.44;;;30.23;65.86
51829;BME280;37881;48.024;8.774;2023-06-22T12:59:48;93848.91;;;30.46;65.73
51829;BME280;37881;48.024;8.774;2023-06-22T13:02:15;93839.06;;;30.13;67.24
51829;BME280;37881;48.024;8.774;2023-06-22T13:04:42;93832.66;;;29.85;68.70
51829;BME280;37881;48.024;8.774;2023-06-22T13:07:10;93824.09;;;30.39;58.10
51829;BME280;37881;48.024;8.774;2023-06-22T13:09:48;93827.09;;;31.10;54.24